createdAt,value
2022-11-15T00:01:15.217Z,98726.56
2022-11-15T00:04:00.531Z,98725.72
2022-11-15T00:06:46.051Z,98719.78
2022-11-15T00:09:31.335Z,98725.84
2022-11-15T00:12:16.635Z,98724.06
2022-11-15T00:15:02.133Z,98726.84
2022-11-15T00:17:50.696Z,98716.34
2022-11-15T00:20:36.382Z,98713.75
2022-11-15T00:23:21.755Z,98716.25
2022-11-15T00:26:07.370Z,98713.44
2022-11-15T00:28:55.895Z,98710.00
2022-11-15T00:31:41.619Z,98715.78
2022-11-15T00:34:27.169Z,98708.06
2022-11-15T00:37:12.628Z,98702.19
2022-11-15T00:39:57.845Z,98707.22
2022-11-15T00:42:43.514Z,98700.16
2022-11-15T00:45:28.686Z,98700.97
2022-11-15T00:48:14.092Z,98699.16
2022-11-15T00:50:59.641Z,98698.38
2022-11-15T00:53:45.134Z,98696.72
2022-11-15T00:56:30.650Z,98688.78
2022-11-15T00:59:15.881Z,98698.09
2022-11-15T01:02:01.282Z,98690.50
2022-11-15T01:04:46.536Z,98687.06
2022-11-15T01:07:32.024Z,98676.72
2022-11-15T01:10:17.710Z,98683.59
2022-11-15T01:13:03.389Z,98684.72
2022-11-15T01:15:48.793Z,98687.06
2022-11-15T01:18:34.345Z,98682.97
2022-11-15T01:21:21.177Z,98684.53
2022-11-15T01:24:06.801Z,98697.66
2022-11-15T01:26:52.345Z,98695.97
2022-11-15T01:29:37.639Z,98688.16
2022-11-15T01:32:23.075Z,98680.16
2022-11-15T01:35:08.477Z,98684.53
2022-11-15T01:37:53.968Z,98683.69
2022-11-15T01:40:39.298Z,98680.63
2022-11-15T01:43:29.075Z,98682.03
2022-11-15T01:46:26.769Z,98687.22
2022-11-15T01:49:22.248Z,98684.06
2022-11-15T01:52:12.059Z,98679.97
2022-11-15T01:55:07.483Z,98667.50
2022-11-15T01:57:57.471Z,98671.97
2022-11-15T02:00:43.075Z,98666.13
2022-11-15T02:03:39.021Z,98662.50
2022-11-15T02:06:24.490Z,98661.00
2022-11-15T02:09:10.572Z,98660.06
2022-11-15T02:11:57.070Z,98664.34
2022-11-15T02:14:46.422Z,98659.97
2022-11-15T02:17:47.070Z,98667.88
2022-11-15T02:20:57.887Z,98660.28
2022-11-15T02:23:46.378Z,98665.28
2022-11-15T02:26:37.784Z,98659.13
2022-11-15T02:29:39.037Z,98656.53
2022-11-15T02:32:33.748Z,98659.97
2022-11-15T02:35:21.948Z,98656.47
2022-11-15T02:38:28.707Z,98661.28
2022-11-15T02:41:41.038Z,98659.53
2022-11-15T02:44:34.824Z,98655.25
2022-11-15T02:47:22.094Z,98648.16
2022-11-15T02:50:13.770Z,98647.22
2022-11-15T02:52:59.098Z,98647.34
2022-11-15T02:55:52.592Z,98639.41
2022-11-15T02:58:59.320Z,98641.09
2022-11-15T03:02:03.096Z,98634.97
2022-11-15T03:04:53.711Z,98633.28
2022-11-15T03:08:05.880Z,98639.41
2022-11-15T03:11:12.708Z,98634.31
2022-11-15T03:14:02.206Z,98635.97
2022-11-15T03:17:13.118Z,98633.38
2022-11-15T03:20:02.135Z,98633.47
2022-11-15T03:22:50.511Z,98627.16
2022-11-15T03:25:42.324Z,98630.03
2022-11-15T03:28:39.829Z,98623.06
2022-11-15T03:31:50.461Z,98622.13
2022-11-15T03:34:45.553Z,98621.00
2022-11-15T03:37:40.244Z,98612.25
2022-11-15T03:40:41.982Z,98609.66
2022-11-15T03:43:40.962Z,98614.03
2022-11-15T03:46:34.077Z,98608.16
2022-11-15T03:49:26.995Z,98602.41
2022-11-15T03:52:12.769Z,98602.50
2022-11-15T03:55:01.145Z,98593.31
2022-11-15T03:57:49.309Z,98594.97
2022-11-15T04:00:34.953Z,98589.22
2022-11-15T04:03:20.554Z,98596.09
2022-11-15T04:06:05.931Z,98592.53
2022-11-15T04:08:51.108Z,98596.09
2022-11-15T04:11:36.546Z,98594.97
2022-11-15T04:14:21.943Z,98598.59
2022-11-15T04:17:07.260Z,98593.66
2022-11-15T04:20:11.106Z,98600.75
2022-11-15T04:23:16.601Z,98595.16
2022-11-15T04:26:11.168Z,98592.00
2022-11-15T04:29:14.958Z,98595.34
2022-11-15T04:32:00.681Z,98593.47
2022-11-15T04:34:46.283Z,98592.44
2022-11-15T04:37:31.849Z,98587.53
2022-11-15T04:40:17.428Z,98585.13
2022-11-15T04:43:04.555Z,98584.09
2022-11-15T04:45:49.945Z,98583.34
2022-11-15T04:48:35.184Z,98590.97
2022-11-15T04:51:21.111Z,98592.81
2022-11-15T04:54:06.575Z,98584.94
2022-11-15T04:56:51.787Z,98584.72
2022-11-15T04:59:37.112Z,98578.91
2022-11-15T05:02:22.453Z,98576.09
2022-11-15T05:05:08.527Z,98591.81
2022-11-15T05:07:53.903Z,98582.34
2022-11-15T05:10:39.553Z,98578.13
2022-11-15T05:13:25.250Z,98577.69
2022-11-15T05:16:10.641Z,98577.03
2022-11-15T05:18:56.214Z,98570.97
2022-11-15T05:21:41.811Z,98575.97
2022-11-15T05:24:27.482Z,98578.50
2022-11-15T05:27:13.029Z,98581.75
2022-11-15T05:29:58.086Z,98592.66
2022-11-15T05:32:44.207Z,98585.50
2022-11-15T05:35:41.441Z,98596.81
2022-11-15T05:38:27.260Z,98593.94
2022-11-15T05:41:14.108Z,98589.38
2022-11-15T05:43:59.890Z,98581.56
2022-11-15T05:46:46.272Z,98590.94
2022-11-15T05:49:36.212Z,98598.47
2022-11-15T05:52:26.611Z,98597.75
2022-11-15T05:55:12.198Z,98595.03
2022-11-15T05:57:57.450Z,98587.50
2022-11-15T06:00:44.314Z,98591.69
2022-11-15T06:03:29.854Z,98591.19
2022-11-15T06:06:16.606Z,98602.56
2022-11-15T06:09:02.153Z,98595.28
2022-11-15T06:11:47.692Z,98593.69
2022-11-15T06:14:33.009Z,98591.94
2022-11-15T06:17:18.298Z,98590.81
2022-11-15T06:20:04.517Z,98596.75
2022-11-15T06:22:49.989Z,98590.22
2022-11-15T06:25:35.489Z,98584.91
2022-11-15T06:28:20.612Z,98593.47
2022-11-15T06:31:08.681Z,98595.78
2022-11-15T06:33:54.277Z,98588.06
2022-11-15T06:36:39.576Z,98590.56
2022-11-15T06:39:24.975Z,98585.25
2022-11-15T06:42:10.468Z,98591.09
2022-11-15T06:44:56.094Z,98593.91
2022-11-15T06:47:48.055Z,98595.81
2022-11-15T06:50:33.504Z,98590.84
2022-11-15T06:53:18.762Z,98592.72
2022-11-15T06:56:06.728Z,98598.03
2022-11-15T06:58:52.229Z,98583.69
2022-11-15T07:01:37.481Z,98588.38
2022-11-15T07:04:23.081Z,98593.06
2022-11-15T07:07:08.705Z,98592.16
2022-11-15T07:09:54.496Z,98596.53
2022-11-15T07:12:40.081Z,98592.59
2022-11-15T07:15:27.331Z,98598.22
2022-11-15T07:18:12.776Z,98591.00
2022-11-15T07:21:03.062Z,98603.03
2022-11-15T07:23:48.285Z,98584.78
2022-11-15T07:26:33.727Z,98587.59
2022-11-15T07:29:19.060Z,98593.66
2022-11-15T07:32:04.634Z,98588.53
2022-11-15T07:34:49.812Z,98594.09
2022-11-15T07:37:35.096Z,98593.66
2022-11-15T07:40:20.683Z,98591.38
2022-11-15T07:43:08.662Z,98592.09
2022-11-15T07:45:58.788Z,98586.44
2022-11-15T07:48:45.372Z,98584.19
2022-11-15T07:51:31.363Z,98580.94
2022-11-15T07:54:16.906Z,98577.78
2022-11-15T07:57:06.996Z,98573.75
2022-11-15T07:59:53.481Z,98584.19
2022-11-15T08:02:39.300Z,98580.97
2022-11-15T08:05:24.927Z,98584.75
2022-11-15T08:08:12.218Z,98581.75
2022-11-15T08:11:00.699Z,98582.81
2022-11-15T08:13:45.689Z,98582.59
2022-11-15T08:16:31.141Z,98582.53
2022-11-15T08:19:16.760Z,98578.69
2022-11-15T08:22:02.218Z,98579.31
2022-11-15T08:24:47.628Z,98581.91
2022-11-15T08:27:32.932Z,98581.91
2022-11-15T08:30:18.411Z,98570.09
2022-11-15T08:33:04.602Z,98576.56
2022-11-15T08:35:50.057Z,98574.28
2022-11-15T08:38:35.832Z,98564.56
2022-11-15T08:41:32.812Z,98566.41
2022-11-15T08:44:18.165Z,98565.06
2022-11-15T08:47:03.912Z,98560.97
2022-11-15T08:49:49.632Z,98557.19
2022-11-15T08:52:35.111Z,98559.28
2022-11-15T08:55:23.503Z,98558.03
2022-11-15T08:58:10.307Z,98546.88
2022-11-15T09:00:56.544Z,98547.47
2022-11-15T09:03:42.530Z,98546.69
2022-11-15T09:06:28.312Z,98545.34
2022-11-15T09:09:13.692Z,98539.69
2022-11-15T09:12:02.509Z,98535.66
2022-11-15T09:14:48.246Z,98530.38
2022-11-15T09:17:33.592Z,98532.34
2022-11-15T09:20:18.813Z,98535.28
2022-11-15T09:23:05.048Z,98528.78
2022-11-15T09:25:50.513Z,98516.84
2022-11-15T09:31:39.385Z,98517.91
2022-11-15T09:34:24.839Z,98524.44
2022-11-15T09:37:10.181Z,98516.97
2022-11-15T09:39:55.619Z,98507.78
2022-11-15T09:42:56.775Z,98507.50
2022-11-15T10:18:09.737Z,98466.06
2022-11-15T10:21:04.012Z,98473.94
2022-11-15T10:23:32.973Z,98462.50
2022-11-15T10:26:06.436Z,98455.25
2022-11-15T10:28:34.125Z,98458.25
2022-11-15T10:31:05.789Z,98454.06
2022-11-15T10:33:35.451Z,98444.44
2022-11-15T10:36:17.148Z,98446.59
2022-11-15T10:38:49.814Z,98443.63
2022-11-15T10:41:38.834Z,98441.25
2022-11-15T10:44:08.267Z,98451.00
2022-11-15T10:46:46.637Z,98446.50
2022-11-15T10:49:21.476Z,98428.50
2022-11-15T10:51:55.766Z,98430.50
2022-11-15T10:54:28.757Z,98430.38
2022-11-15T10:56:58.372Z,98421.13
2022-11-15T11:40:31.245Z,98361.19
2022-11-15T15:22:05.706Z,98140.47
2022-11-15T15:24:33.285Z,98140.81
2022-11-15T15:27:00.189Z,98126.41
2022-11-15T15:29:27.039Z,98128.66
2022-11-15T15:31:53.928Z,98130.31
2022-11-15T15:34:21.550Z,98124.59
2022-11-15T15:36:48.583Z,98125.31
2022-11-15T15:39:15.416Z,98136.63
2022-11-15T15:41:42.488Z,98136.22
2022-11-15T15:44:09.355Z,98131.38
2022-11-15T15:46:36.445Z,98134.72
2022-11-15T15:49:03.439Z,98129.75
2022-11-15T15:51:30.366Z,98125.06
2022-11-15T15:53:59.176Z,98125.06
2022-11-15T15:56:26.187Z,98129.44
2022-11-15T15:58:53.672Z,98123.25
2022-11-15T16:01:20.960Z,98119.50
2022-11-15T16:03:48.052Z,98110.38
2022-11-15T16:06:37.845Z,98109.28
2022-11-15T16:09:15.020Z,98112.47
2022-11-15T16:11:44.724Z,98117.59
2022-11-15T16:14:11.928Z,98109.28
2022-11-15T16:16:39.166Z,98102.41
2022-11-15T16:19:06.084Z,98099.34
2022-11-15T16:21:33.026Z,98113.72
2022-11-15T16:24:01.049Z,98111.34
2022-11-15T16:26:29.986Z,98109.31
2022-11-15T16:28:57.121Z,98111.50
2022-11-15T16:31:24.013Z,98113.44
2022-11-15T16:33:50.940Z,98107.66
2022-11-15T16:36:30.738Z,98113.19
2022-11-15T16:38:58.904Z,98100.59
2022-11-15T16:41:26.469Z,98102.81
2022-11-15T16:43:53.521Z,98099.09
2022-11-15T16:46:22.933Z,98095.94
2022-11-15T16:48:50.739Z,98094.41
2022-11-15T16:51:18.068Z,98093.69
2022-11-15T16:53:45.575Z,98093.13
2022-11-15T16:56:22.668Z,98092.00
2022-11-15T16:58:49.648Z,98083.59
2022-11-15T17:01:34.004Z,98082.78
2022-11-15T17:04:12.826Z,98086.50
2022-11-15T17:06:41.357Z,98085.66
2022-11-15T17:09:16.189Z,98086.34
2022-11-15T17:11:43.884Z,98086.09
2022-11-15T17:14:11.819Z,98088.59
2022-11-15T17:16:42.480Z,98087.63
2022-11-15T17:19:21.963Z,98089.38
2022-11-15T17:21:52.084Z,98088.13
2022-11-15T17:24:21.261Z,98080.25
2022-11-15T17:26:48.342Z,98078.31
2022-11-15T17:29:15.272Z,98074.34
2022-11-15T17:31:42.190Z,98070.16
2022-11-15T17:34:09.128Z,98067.69
2022-11-15T17:36:36.325Z,98065.13
2022-11-15T17:39:04.519Z,98059.41
2022-11-15T17:41:31.941Z,98043.44
2022-11-15T17:44:00.451Z,98049.38
2022-11-15T17:46:28.556Z,98047.91
2022-11-15T17:48:57.040Z,98046.41
2022-11-15T17:51:24.360Z,98043.09
2022-11-15T17:53:51.654Z,98038.00
2022-11-15T17:56:23.506Z,98048.06
2022-11-15T17:58:53.160Z,98033.56
2022-11-15T18:01:21.543Z,98035.53
2022-11-15T18:03:49.343Z,98030.28
2022-11-15T18:06:17.646Z,98031.38
2022-11-15T18:08:46.236Z,98026.16
2022-11-15T18:11:17.563Z,98031.13
2022-11-15T18:13:51.910Z,98033.09
2022-11-15T18:16:21.732Z,98024.66
2022-11-15T18:18:49.118Z,98022.72
2022-11-15T18:21:21.920Z,98028.50
2022-11-15T18:23:53.432Z,98034.88
2022-11-15T18:26:25.682Z,98024.13
2022-11-15T18:28:57.139Z,98030.19
2022-11-15T18:31:28.120Z,98023.69
2022-11-15T18:33:55.330Z,98025.63
2022-11-15T18:36:25.275Z,98028.22
2022-11-15T18:39:00.784Z,98025.75
2022-11-15T18:41:30.973Z,98028.06
2022-11-15T18:43:59.673Z,98030.97
2022-11-15T18:46:29.988Z,98026.59
2022-11-15T18:48:59.192Z,98022.69
2022-11-15T18:51:30.090Z,98019.53
2022-11-15T18:54:00.310Z,98015.66
2022-11-15T18:56:28.689Z,98018.69
2022-11-15T18:58:59.270Z,98018.25
2022-11-15T19:01:35.144Z,98015.16
2022-11-15T19:04:21.019Z,98016.84
2022-11-15T19:06:50.199Z,98020.22
2022-11-15T19:09:19.056Z,98013.25
2022-11-15T19:11:47.686Z,98015.13
2022-11-15T19:14:18.178Z,98011.84
2022-11-15T19:16:52.411Z,98013.56
2022-11-15T19:19:28.542Z,98007.22
2022-11-15T19:21:57.327Z,98003.22
2022-11-15T19:24:25.019Z,97996.84
2022-11-15T19:26:51.916Z,98002.44
2022-11-15T19:29:18.972Z,97998.69
2022-11-15T19:31:47.726Z,98002.66
2022-11-15T19:34:14.772Z,98005.41
2022-11-15T19:36:43.694Z,97999.66
2022-11-15T19:39:14.627Z,97999.91
2022-11-15T19:41:43.170Z,97998.91
2022-11-15T19:44:11.958Z,98000.19
2022-11-15T19:46:39.415Z,97999.50
2022-11-15T19:49:08.152Z,97992.50
2022-11-15T19:51:35.080Z,97988.06
2022-11-15T19:54:06.766Z,97978.97
2022-11-15T19:56:35.281Z,97986.75
2022-11-15T19:59:03.170Z,97982.72
2022-11-15T20:01:32.583Z,97981.13
2022-11-15T20:04:00.921Z,97978.81
2022-11-15T20:06:30.762Z,97978.28
2022-11-15T20:08:58.271Z,97966.75
2022-11-15T20:11:26.238Z,97966.25
2022-11-15T20:14:00.508Z,97964.53
2022-11-15T20:16:27.760Z,97961.47
2022-11-15T20:18:54.783Z,97967.16
2022-11-15T20:21:22.332Z,97968.94
2022-11-15T20:23:51.142Z,97958.41
2022-11-15T20:26:19.749Z,97952.06
2022-11-15T20:28:48.258Z,97945.84
2022-11-15T20:31:16.175Z,97943.69
2022-11-15T20:33:43.115Z,97945.91
2022-11-15T20:36:13.549Z,97941.59
2022-11-15T20:38:40.681Z,97938.38
2022-11-15T20:41:07.763Z,97932.31
2022-11-15T20:43:34.866Z,97937.00
2022-11-15T20:46:01.828Z,97933.88
2022-11-15T20:48:28.871Z,97927.72
2022-11-15T20:51:13.063Z,97923.72
2022-11-15T20:53:41.124Z,97918.06
2022-11-15T20:56:11.424Z,97913.41
2022-11-15T20:58:38.944Z,97920.09
2022-11-15T21:01:07.756Z,97916.03
2022-11-15T21:03:35.063Z,97923.47
2022-11-15T21:06:02.316Z,97922.97
2022-11-15T21:08:49.996Z,97921.91
2022-11-15T21:11:35.564Z,97919.47
2022-11-15T21:14:07.770Z,97913.59
2022-11-15T21:16:36.225Z,97912.56
2022-11-15T21:19:03.176Z,97907.44
2022-11-15T21:21:30.113Z,97904.22
2022-11-15T21:23:57.026Z,97900.78
2022-11-15T21:26:23.991Z,97892.25
2022-11-15T21:28:50.889Z,97888.53
2022-11-15T21:31:17.804Z,97886.66
2022-11-15T21:33:44.782Z,97886.06
2022-11-15T21:36:11.710Z,97876.97
2022-11-15T21:38:38.748Z,97874.50
2022-11-15T21:41:06.173Z,97866.44
2022-11-15T21:43:33.398Z,97869.72
2022-11-15T21:46:02.989Z,97856.56
2022-11-15T21:48:31.769Z,97856.47
2022-11-15T21:51:10.892Z,97857.56
2022-11-15T21:53:37.828Z,97852.97
2022-11-15T21:56:05.107Z,97844.22
2022-11-15T21:58:32.267Z,97839.94
2022-11-15T22:01:18.413Z,97837.81
2022-11-15T22:03:46.036Z,97831.91
2022-11-15T22:06:17.456Z,97826.13
2022-11-15T22:08:46.338Z,97820.16
2022-11-15T22:11:14.377Z,97825.69
2022-11-15T22:13:41.744Z,97819.22
2022-11-15T22:16:09.583Z,97815.28
2022-11-15T22:18:37.666Z,97803.59
2022-11-15T22:21:07.875Z,97804.72
2022-11-15T22:23:35.373Z,97799.03
2022-11-15T22:26:02.606Z,97801.56
2022-11-15T22:28:30.571Z,97782.78
2022-11-15T22:30:58.551Z,97784.13
2022-11-15T22:33:27.805Z,97789.53
2022-11-15T22:35:54.945Z,97789.44
2022-11-15T22:38:22.506Z,97788.22
2022-11-15T22:40:50.019Z,97786.44
2022-11-15T22:43:19.284Z,97778.97
2022-11-15T22:45:52.028Z,97770.59
2022-11-15T22:48:30.465Z,97762.91
2022-11-15T22:50:58.092Z,97753.44
2022-11-15T22:53:25.486Z,97753.69
2022-11-15T22:55:54.629Z,97747.47
2022-11-15T22:58:23.235Z,97748.00
2022-11-15T23:00:55.489Z,97740.31
2022-11-15T23:03:23.584Z,97743.19
2022-11-15T23:05:50.929Z,97735.81
2022-11-15T23:08:18.863Z,97735.22
2022-11-15T23:11:04.698Z,97720.06
2022-11-15T23:13:33.276Z,97718.78
2022-11-15T23:16:22.594Z,97716.34
2022-11-15T23:18:51.737Z,97708.38
2022-11-15T23:21:58.193Z,97714.78
2022-11-15T23:24:25.825Z,97709.16
2022-11-15T23:26:55.783Z,97712.16
2022-11-15T23:29:25.137Z,97708.63
2022-11-15T23:32:11.920Z,97711.38
2022-11-15T23:34:41.322Z,97698.84
2022-11-15T23:37:10.605Z,97697.31
2022-11-15T23:39:37.652Z,97691.25
2022-11-15T23:42:09.012Z,97694.59
2022-11-15T23:44:36.984Z,97688.34
2022-11-15T23:47:03.984Z,97680.59
2022-11-15T23:49:30.987Z,97680.16
2022-11-15T23:51:57.950Z,97680.59
2022-11-15T23:54:24.871Z,97674.84
2022-11-15T23:56:51.844Z,97668.75
2022-11-15T23:59:18.834Z,97671.13
